Fripp Island, South Carolina
Current Conditions -  °F | °C
As of 3:35 PM on Monday 26 Jan 2015 (Local Time) from KARW Reporting Station
Overcast Overcast  
Wind Chill: 55°   Ceiling: 5500
Heat Index: 55°   Visibility: 10mi
Dew Point: 43°   Wind: 15mph
Humidity: 63%   Direction: 270°W
Pressure: 29.68"   Gusts: 23mph
Location:  32.3871°N, 80.5485°W
Report Text: KARW 262035Z AUTO 27013G20KT 10SM SCT038 SCT044 OVC055 13/06 A2968 RMK AO2
Loading
Personal Weather Stations






























Interactive Weather Map New forecast layout! Learn more

10-Day Weather Forecast

Advertisements
Track Severe Weather on mobile